M I D A S
Marine Information and Data Acquisition System
Tripno 1025 of the Zeeleeuw from 2006-01-19 07:34:41 to 2006-01-19 16:23:26
Back to CruiseResearch ActivitiesStationsMapUnderway DataData graphs

EquipmentUnitsComments
TimeDGPSUTC
LatitudeDGPSDM.mWGS84
LongitudeDGPSDM.mWGS84
SpeedMeteo Stationm/sRelative wind speed
DirectionMeteo StationdegRelative wind direction
TemperatureMeteo Stationdeg CelciusAir temperature
PressureMeteo StationPaAtmospheric pressure
HumidityMeteo Station%Relative humidity
Missing or incorrect values are displayed as -999
Metereological data collected by the RV Zeeleeuw from 2006-01-19 07:34:12 to 2006-01-19 16:40:00
                                                                                    Next 1000 lines
Time Latitude Longitude Speed Direction Temperature Pressure Humidity
2006-01-19 07:34:22 51°13.599 2°56.097 -999 56 7.2 101940 100
2006-01-19 07:34:27 51°13.599 2°56.097 -999 45 7.1 101940 100
2006-01-19 07:34:32 51°13.599 2°56.097 -999 36 7.1 101940 100
2006-01-19 07:34:37 51°13.599 2°56.097 -999 44 7.2 101940 100
2006-01-19 07:34:42 51°13.599 2°56.097 -999 75 7.2 101940 100
2006-01-19 07:34:47 51°13.599 2°56.097 -999 56 7.1 101940 100
2006-01-19 07:34:52 51°13.599 2°56.097 -999 80 7.1 101940 100
2006-01-19 07:34:57 51°13.599 2°56.097 -999 85 7.2 101940 100
2006-01-19 07:35:02 51°13.599 2°56.098 -999 76 7.2 101940 100
2006-01-19 07:35:07 51°13.599 2°56.098 -999 79 7.2 101940 100
2006-01-19 07:35:12 51°13.599 2°56.097 -999 87 7.2 101940 100
2006-01-19 07:35:17 51°13.599 2°56.097 -999 70 7.2 101940 100
2006-01-19 07:35:22 51°13.599 2°56.098 -999 41 7.2 101940 100
2006-01-19 07:35:27 51°13.599 2°56.097 -999 34 7.2 101940 100
2006-01-19 07:35:32 51°13.599 2°56.097 -999 84 7.2 101940 100
2006-01-19 07:35:37 51°13.599 2°56.097 -999 52 7.2 101940 100
2006-01-19 07:35:42 51°13.599 2°56.097 -999 64 7.2 101940 100
2006-01-19 07:35:47 51°13.599 2°56.097 -999 66 7.2 101940 100
2006-01-19 07:35:52 51°13.599 2°56.097 -999 77 7.2 101940 100
2006-01-19 07:35:57 51°13.599 2°56.097 -999 68 7.2 101940 100
2006-01-19 07:36:02 51°13.599 2°56.098 -999 80 7.2 101940 100
2006-01-19 07:36:07 51°13.599 2°56.098 -999 98 7.2 101940 100
2006-01-19 07:36:12 51°13.597 2°56.097 -999 101 7.2 101940 100
2006-01-19 07:36:17 51°13.597 2°56.098 -999 102 7.2 101940 100
2006-01-19 07:36:22 51°13.598 2°56.097 -999 89 7.2 101940 100
2006-01-19 07:36:27 51°13.599 2°56.097 -999 92 7.2 101940 100
2006-01-19 07:36:32 51°13.599 2°56.097 -999 83 7.2 101940 100
2006-01-19 07:36:37 51°13.599 2°56.096 -999 70 7.2 101940 100
2006-01-19 07:36:42 51°13.599 2°56.095 -999 62 7.2 101940 100
2006-01-19 07:36:47 51°13.599 2°56.093 -999 110 7.2 101940 100
2006-01-19 07:36:52 51°13.6 2°56.091 -999 85 7.2 101940 100
2006-01-19 07:36:57 51°13.601 2°56.089 -999 96 7.2 101940 100
2006-01-19 07:37:02 51°13.602 2°56.086 -999 78 7.2 101940 100
2006-01-19 07:37:06 51°13.603 2°56.084 -999 69 7.2 101940 100
2006-01-19 07:37:13 51°13.604 2°56.08 -999 87 7.2 101940 100
2006-01-19 07:37:17 51°13.605 2°56.077 -999 91 7.2 101940 100
2006-01-19 07:37:22 51°13.606 2°56.074 -999 94 7.2 101940 100
2006-01-19 07:37:26 51°13.607 2°56.071 -999 93 7.1 101940 100
2006-01-19 07:37:32 51°13.608 2°56.066 -999 94 7.1 101940 100
2006-01-19 07:37:37 51°13.61 2°56.061 -999 115 7.2 101940 100
2006-01-19 07:37:42 51°13.612 2°56.057 -999 100 7.2 101940 100
2006-01-19 07:37:47 51°13.613 2°56.052 -999 88 7.2 101940 100
2006-01-19 07:37:52 51°13.615 2°56.047 -999 111 7.2 101940 100
2006-01-19 07:37:57 51°13.617 2°56.042 -999 115 7.1 101940 100
2006-01-19 07:38:02 51°13.618 2°56.036 -999 109 7.1 101940 100
2006-01-19 07:38:07 51°13.62 2°56.031 -999 111 7.1 101940 100
2006-01-19 07:38:12 51°13.622 2°56.026 -999 104 7.1 101940 100
2006-01-19 07:38:17 51°13.623 2°56.021 -999 95 7.2 101940 100
2006-01-19 07:38:22 51°13.625 2°56.015 -999 108 7.2 101940 100
2006-01-19 07:38:26 51°13.626 2°56.01 -999 127 7.2 101940 100
2006-01-19 07:38:32 51°13.628 2°56.002 -999 154 7.2 101940 100
2006-01-19 07:38:37 51°13.631 2°55.994 -999 148 7.2 101940 100
2006-01-19 07:38:42 51°13.633 2°55.986 -999 135 7.2 101940 100
2006-01-19 07:38:46 51°13.635 2°55.979 -999 158 7.1 101940 100
2006-01-19 07:38:52 51°13.639 2°55.968 -999 145 7.1 101940 100
2006-01-19 07:38:57 51°13.642 2°55.959 -999 132 7.2 101950 100
2006-01-19 07:39:02 51°13.645 2°55.949 -999 120 7.2 101950 100
2006-01-19 07:39:07 51°13.648 2°55.938 -999 126 7.1 101950 100
2006-01-19 07:39:12 51°13.652 2°55.928 -999 134 7.1 101950 100
2006-01-19 07:39:17 51°13.655 2°55.917 -999 137 7.2 101940 100
2006-01-19 07:39:22 51°13.659 2°55.906 -999 133 7.2 101940 100
2006-01-19 07:39:27 51°13.662 2°55.895 -999 140 7.2 101950 100
2006-01-19 07:39:32 51°13.666 2°55.884 -999 115 7.2 101950 100
2006-01-19 07:39:37 51°13.67 2°55.872 -999 121 7.2 101940 100
2006-01-19 07:39:42 51°13.673 2°55.861 -999 153 7.2 101940 100
2006-01-19 07:39:47 51°13.676 2°55.85 -999 147 7.2 101950 100
2006-01-19 07:39:52 51°13.679 2°55.839 -999 141 7.2 101950 100
2006-01-19 07:39:57 51°13.682 2°55.829 -999 141 7.1 101950 100
2006-01-19 07:40:02 51°13.684 2°55.819 -999 154 7.1 101950 100
2006-01-19 07:40:07 51°13.686 2°55.809 -999 144 7.1 101950 100
2006-01-19 07:40:12 51°13.688 2°55.799 -999 128 7.1 101950 100
2006-01-19 07:40:17 51°13.69 2°55.79 -999 137 7.2 101950 100
2006-01-19 07:40:22 51°13.691 2°55.782 -999 132 7.2 101950 100
2006-01-19 07:40:27 51°13.693 2°55.774 -999 137 7.1 101950 100
2006-01-19 07:40:32 51°13.694 2°55.767 -999 135 7.1 101950 100
2006-01-19 07:40:37 51°13.695 2°55.761 -999 133 7.1 101950 100
2006-01-19 07:40:42 51°13.695 2°55.756 -999 135 7.1 101950 100
2006-01-19 07:40:47 51°13.696 2°55.753 -999 136 7.1 101950 100
2006-01-19 07:40:52 51°13.696 2°55.753 -999 141 7.1 101950 100
2006-01-19 07:40:57 51°13.697 2°55.753 -999 145 7.1 101950 100
2006-01-19 07:41:02 51°13.699 2°55.754 -999 131 7.1 101950 100
2006-01-19 07:41:07 51°13.7 2°55.755 -999 131 7.1 101950 100
2006-01-19 07:41:12 51°13.701 2°55.756 -999 142 7.1 101950 100
2006-01-19 07:41:17 51°13.703 2°55.758 -999 140 7.2 101950 100
2006-01-19 07:41:22 51°13.706 2°55.759 -999 149 7.2 101950 100
2006-01-19 07:41:27 51°13.708 2°55.761 -999 148 7.1 101950 100
2006-01-19 07:41:32 51°13.711 2°55.762 -999 154 7.1 101950 100
2006-01-19 07:41:37 51°13.713 2°55.763 -999 163 7.1 101950 100
2006-01-19 07:41:42 51°13.715 2°55.763 -999 160 7.1 101950 100
2006-01-19 07:41:47 51°13.716 2°55.763 -999 160 7.1 101950 100
2006-01-19 07:41:52 51°13.716 2°55.763 -999 159 7.1 101950 100
2006-01-19 07:41:57 51°13.716 2°55.762 -999 170 7.1 101950 100
2006-01-19 07:42:02 51°13.716 2°55.761 -999 174 7.1 101950 100
2006-01-19 07:42:06 51°13.715 2°55.761 -999 184 7.1 101950 100
2006-01-19 07:42:12 51°13.713 2°55.76 -999 175 7.1 101950 100
2006-01-19 07:42:17 51°13.711 2°55.758 -999 200 7.1 101960 100
2006-01-19 07:42:22 51°13.709 2°55.757 -999 165 7.1 101960 100
2006-01-19 07:42:26 51°13.707 2°55.756 -999 171 7.1 101960 100
2006-01-19 07:42:32 51°13.705 2°55.755 -999 206 7.1 101960 100
2006-01-19 07:42:38 51°13.704 2°55.754 -999 171 7.2 101960 100
2006-01-19 07:42:42 51°13.703 2°55.753 -999 208 7.2 101960 100
2006-01-19 07:42:47 51°13.704 2°55.753 -999 216 7.2 101960 100
2006-01-19 07:42:52 51°13.704 2°55.752 -999 215 7.2 101960 100
2006-01-19 07:42:57 51°13.706 2°55.751 -999 224 7.2 101960 100
2006-01-19 07:43:02 51°13.708 2°55.75 -999 216 7.2 101960 100
2006-01-19 07:43:07 51°13.71 2°55.748 -999 223 7.2 101960 100
2006-01-19 07:43:12 51°13.713 2°55.746 -999 222 7.2 101960 100
2006-01-19 07:43:17 51°13.716 2°55.743 -999 225 7.3 101960 100
2006-01-19 07:43:22 51°13.719 2°55.739 -999 245 7.3 101960 100
2006-01-19 07:43:27 51°13.723 2°55.736 -999 257 7.2 101960 100
2006-01-19 07:43:32 51°13.726 2°55.731 -999 254 7.2 101960 100
2006-01-19 07:43:37 51°13.731 2°55.726 -999 256 7.2 101960 100
2006-01-19 07:43:42 51°13.735 2°55.72 -999 253 7.2 101960 100
2006-01-19 07:43:47 51°13.74 2°55.715 -999 256 7.2 101960 100
2006-01-19 07:43:52 51°13.745 2°55.708 -999 242 7.2 101960 100
2006-01-19 07:43:57 51°13.751 2°55.702 -999 245 7.2 101960 100
2006-01-19 07:44:02 51°13.756 2°55.695 -999 248 7.2 101960 100
2006-01-19 07:44:07 51°13.762 2°55.689 -999 249 7.2 101960 100
2006-01-19 07:44:12 51°13.768 2°55.682 -999 246 7.2 101960 100
2006-01-19 07:44:17 51°13.775 2°55.677 -999 244 7.2 101960 100
2006-01-19 07:44:22 51°13.782 2°55.672 -999 194 7.2 101960 100
2006-01-19 07:44:27 51°13.788 2°55.667 -999 184 7.2 101960 100
2006-01-19 07:44:32 51°13.796 2°55.662 -999 185 7.2 101960 100
2006-01-19 07:44:37 51°13.803 2°55.657 -999 185 7.2 101960 100
2006-01-19 07:44:42 51°13.81 2°55.652 -999 178 7.2 101960 100
2006-01-19 07:44:46 51°13.816 2°55.648 -999 170 7.2 101960 100
2006-01-19 07:44:52 51°13.825 2°55.641 -999 170 7.2 101960 100
2006-01-19 07:44:57 51°13.833 2°55.636 -999 170 7.2 101960 100
2006-01-19 07:45:02 51°13.841 2°55.63 -999 169 7.2 101960 100
2006-01-19 07:45:07 51°13.849 2°55.624 -999 169 7.2 101960 100
2006-01-19 07:45:12 51°13.857 2°55.618 -999 169 7.2 101960 100
2006-01-19 07:45:17 51°13.865 2°55.612 -999 169 7.2 101960 100
2006-01-19 07:45:22 51°13.873 2°55.606 -999 169 7.2 101960 100
2006-01-19 07:45:27 51°13.881 2°55.6 -999 169 7.2 101960 100
2006-01-19 07:45:32 51°13.89 2°55.594 -999 169 7.2 101960 100
2006-01-19 07:45:37 51°13.898 2°55.588 -999 169 7.3 101960 100
2006-01-19 07:45:42 51°13.906 2°55.583 -999 170 7.3 101960 100
2006-01-19 07:45:47 51°13.915 2°55.577 -999 170 7.3 101960 100
2006-01-19 07:45:52 51°13.923 2°55.571 -999 130 7.3 101960 100
2006-01-19 07:45:57 51°13.932 2°55.565 -999 15 7.3 101960 100
2006-01-19 07:46:02 51°13.94 2°55.558 -999 4 7.3 101960 100
2006-01-19 07:46:07 51°13.949 2°55.552 -999 4 7.3 101960 100
2006-01-19 07:46:12 51°13.958 2°55.546 -999 357 7.3 101960 100
2006-01-19 07:46:17 51°13.966 2°55.539 -999 351 7.2 101960 100
2006-01-19 07:46:22 51°13.975 2°55.533 -999 347 7.2 101960 100
2006-01-19 07:46:26 51°13.982 2°55.528 -999 338 7.3 101960 100
2006-01-19 07:46:32 51°13.992 2°55.52 -999 333 7.3 101960 100
2006-01-19 07:46:37 51°14.001 2°55.514 -999 325 7.3 101960 100
2006-01-19 07:46:42 51°14.009 2°55.508 -999 316 7.3 101960 100
2006-01-19 07:46:47 51°14.018 2°55.502 -999 316 7.2 101960 100
2006-01-19 07:46:52 51°14.027 2°55.495 -999 42 7.2 101960 100
2006-01-19 07:46:57 51°14.035 2°55.489 -999 312 7.3 101960 100
2006-01-19 07:47:02 51°14.044 2°55.483 -999 299 7.3 101960 100
2006-01-19 07:47:07 51°14.052 2°55.476 -999 308 7.3 101960 100
2006-01-19 07:47:12 51°14.061 2°55.47 -999 295 7.3 101960 100
2006-01-19 07:47:17 51°14.069 2°55.464 -999 313 7.3 101960 100
2006-01-19 07:47:22 51°14.078 2°55.457 -999 307 7.3 101960 100
2006-01-19 07:47:27 51°14.086 2°55.45 -999 293 7.3 101960 100
2006-01-19 07:47:32 51°14.094 2°55.443 -999 316 7.3 101960 100
2006-01-19 07:47:37 51°14.103 2°55.436 -999 317 7.3 101960 100
2006-01-19 07:47:42 51°14.112 2°55.428 -999 312 7.3 101960 100
2006-01-19 07:47:47 51°14.121 2°55.421 -999 292 7.3 101960 100
2006-01-19 07:47:52 51°14.131 2°55.413 -999 266 7.3 101960 100
2006-01-19 07:47:57 51°14.14 2°55.404 -999 288 7.3 101960 100
2006-01-19 07:48:02 51°14.15 2°55.395 -999 287 7.3 101960 100
2006-01-19 07:48:07 51°14.16 2°55.386 -999 288 7.3 101950 100
2006-01-19 07:48:12 51°14.169 2°55.377 -999 285 7.3 101950 100
2006-01-19 07:48:17 51°14.179 2°55.367 -999 325 7.3 101960 100
2006-01-19 07:48:22 51°14.188 2°55.357 -999 321 7.3 101960 100
2006-01-19 07:48:26 51°14.196 2°55.348 -999 329 7.3 101960 100
2006-01-19 07:48:32 51°14.208 2°55.335 -999 331 7.3 101960 100
2006-01-19 07:48:37 51°14.217 2°55.324 -999 323 7.3 101950 100
2006-01-19 07:48:42 51°14.226 2°55.312 -999 318 7.3 101950 100
2006-01-19 07:48:47 51°14.236 2°55.3 -999 307 7.3 101950 100
2006-01-19 07:48:52 51°14.244 2°55.288 -999 227 7.3 101950 100
2006-01-19 07:48:57 51°14.253 2°55.275 -999 323 7.3 101950 100
2006-01-19 07:49:02 51°14.262 2°55.261 -999 309 7.3 101950 100
2006-01-19 07:49:07 51°14.27 2°55.247 -999 303 7.3 101950 100
2006-01-19 07:49:13 51°14.279 2°55.23 -999 311 7.3 101950 100
2006-01-19 07:49:17 51°14.286 2°55.218 -999 316 7.3 101960 100
2006-01-19 07:49:22 51°14.293 2°55.204 -999 316 7.3 101960 100
2006-01-19 07:49:26 51°14.299 2°55.192 -999 297 7.3 101950 100
2006-01-19 07:49:32 51°14.308 2°55.174 -999 329 7.3 101950 100
2006-01-19 07:49:37 51°14.316 2°55.159 -999 305 7.3 101950 100
2006-01-19 07:49:42 51°14.323 2°55.144 -999 318 7.3 101950 100
2006-01-19 07:49:46 51°14.33 2°55.131 -999 331 7.3 101950 100
2006-01-19 07:49:52 51°14.339 2°55.111 -999 320 7.3 101950 100
2006-01-19 07:49:57 51°14.347 2°55.095 -999 40 7.3 101950 100
2006-01-19 07:50:02 51°14.355 2°55.079 -999 309 7.3 101950 100
2006-01-19 07:50:07 51°14.364 2°55.062 -999 308 7.3 101960 100
2006-01-19 07:50:12 51°14.372 2°55.044 -999 295 7.3 101960 100
2006-01-19 07:50:17 51°14.38 2°55.026 -999 305 7.3 101950 100
2006-01-19 07:50:23 51°14.388 2°55.003 -999 302 7.3 101950 100
2006-01-19 07:50:27 51°14.393 2°54.987 -999 44 7.3 101950 100
2006-01-19 07:50:32 51°14.399 2°54.966 -999 307 7.3 101950 100
2006-01-19 07:50:37 51°14.404 2°54.946 -999 312 7.3 101960 100
2006-01-19 07:50:42 51°14.41 2°54.925 -999 306 7.3 101960 100
2006-01-19 07:50:47 51°14.415 2°54.903 -999 313 7.3 101950 100
2006-01-19 07:50:53 51°14.421 2°54.877 -999 310 7.3 101950 100
2006-01-19 07:50:57 51°14.425 2°54.859 -999 314 7.4 101940 100
2006-01-19 07:51:02 51°14.429 2°54.836 -999 228 7.4 101940 100
2006-01-19 07:51:07 51°14.433 2°54.812 -999 41 7.4 101940 100
2006-01-19 07:51:13 51°14.437 2°54.783 -999 317 7.4 101940 100
2006-01-19 07:51:17 51°14.439 2°54.762 -999 316 7.4 101940 100
2006-01-19 07:51:22 51°14.441 2°54.737 -999 315 7.4 101940 100
2006-01-19 07:51:27 51°14.443 2°54.71 -999 40 7.4 101930 100
2006-01-19 07:51:33 51°14.447 2°54.677 -999 315 7.4 101930 100
2006-01-19 07:51:37 51°14.449 2°54.655 -999 316 7.4 101940 100
2006-01-19 07:51:42 51°14.451 2°54.627 -999 316 7.4 101940 100
2006-01-19 07:51:47 51°14.454 2°54.599 -999 318 7.4 101930 100
2006-01-19 07:51:52 51°14.457 2°54.57 -999 318 7.4 101930 100
2006-01-19 07:51:57 51°14.459 2°54.542 -999 320 7.4 101940 100
2006-01-19 07:52:02 51°14.46 2°54.513 -999 318 7.4 101940 100
2006-01-19 07:52:07 51°14.462 2°54.483 -999 319 7.3 101930 100
2006-01-19 07:52:12 51°14.463 2°54.454 -999 320 7.3 101930 100
2006-01-19 07:52:17 51°14.465 2°54.425 -999 43 7.3 101930 100
2006-01-19 07:52:22 51°14.468 2°54.396 -999 319 7.3 101930 100
2006-01-19 07:52:27 51°14.471 2°54.367 -999 316 7.3 101910 100
2006-01-19 07:52:32 51°14.474 2°54.338 -999 320 7.3 101910 100
2006-01-19 07:52:37 51°14.475 2°54.309 -999 323 7.3 101910 100
2006-01-19 07:52:42 51°14.475 2°54.279 -999 329 7.3 101910 100
2006-01-19 07:52:47 51°14.472 2°54.251 -999 329 7.3 101920 100
2006-01-19 07:52:52 51°14.469 2°54.222 -999 332 7.3 101920 100
2006-01-19 07:52:56 51°14.466 2°54.2 -999 329 7.3 101920 100
2006-01-19 07:53:02 51°14.459 2°54.167 -999 330 7.3 101920 100
2006-01-19 07:53:07 51°14.452 2°54.14 -999 339 7.3 101910 100
2006-01-19 07:53:12 51°14.444 2°54.114 -999 344 7.3 101910 100
2006-01-19 07:53:17 51°14.435 2°54.09 -999 341 7.2 101910 100
2006-01-19 07:53:22 51°14.425 2°54.065 -999 344 7.2 101910 100
2006-01-19 07:53:27 51°14.415 2°54.041 -999 341 7.3 101910 100
2006-01-19 07:53:32 51°14.406 2°54.017 -999 341 7.3 101910 100
2006-01-19 07:53:37 51°14.395 2°53.993 -999 338 7.2 101910 100
2006-01-19 07:53:42 51°14.386 2°53.968 -999 340 7.2 101910 100
2006-01-19 07:53:47 51°14.376 2°53.944 -999 340 7.2 101910 100
2006-01-19 07:53:52 51°14.366 2°53.919 -999 332 7.2 101910 100
2006-01-19 07:53:57 51°14.357 2°53.893 -999 335 7.2 101920 100
2006-01-19 07:54:02 51°14.348 2°53.868 -999 336 7.2 101920 100
2006-01-19 07:54:07 51°14.339 2°53.842 -999 339 7.2 101910 100
2006-01-19 07:54:12 51°14.33 2°53.816 -999 335 7.2 101910 100
2006-01-19 07:54:17 51°14.321 2°53.791 -999 333 7.2 101910 100
2006-01-19 07:54:22 51°14.312 2°53.765 -999 337 7.2 101910 100
2006-01-19 07:54:27 51°14.303 2°53.739 -999 333 7.2 101910 100
2006-01-19 07:54:33 51°14.293 2°53.708 -999 335 7.2 101910 100
2006-01-19 07:54:37 51°14.285 2°53.688 -999 339 7.2 101910 100
2006-01-19 07:54:42 51°14.276 2°53.662 -999 346 7.2 101910 100
2006-01-19 07:54:46 51°14.268 2°53.642 -999 335 7.3 101900 100
2006-01-19 07:54:52 51°14.256 2°53.613 -999 340 7.3 101900 100
2006-01-19 07:54:57 51°14.246 2°53.588 -999 342 7.3 101910 100
2006-01-19 07:55:02 51°14.236 2°53.563 -999 336 7.3 101910 100
2006-01-19 07:55:06 51°14.228 2°53.543 -999 333 7.2 101910 100
2006-01-19 07:55:12 51°14.217 2°53.512 -999 336 7.2 101910 100
2006-01-19 07:55:17 51°14.207 2°53.486 -999 342 7.2 101910 100
2006-01-19 07:55:22 51°14.198 2°53.461 -999 336 7.2 101910 100
2006-01-19 07:55:27 51°14.189 2°53.435 -999 338 7.2 101910 100
2006-01-19 07:55:32 51°14.18 2°53.409 -999 341 7.2 101910 100
2006-01-19 07:55:37 51°14.172 2°53.382 -999 338 7.2 101910 100
2006-01-19 07:55:42 51°14.163 2°53.357 -999 340 7.2 101910 100
2006-01-19 07:55:47 51°14.153 2°53.331 -999 341 7.2 101870 100
2006-01-19 07:55:53 51°14.142 2°53.3 -999 336 7.2 101870 100
2006-01-19 07:55:57 51°14.134 2°53.28 -999 341 7.2 101870 100
2006-01-19 07:56:02 51°14.124 2°53.255 -999 339 7.2 101870 100
2006-01-19 07:56:06 51°14.116 2°53.235 -999 342 7.2 101870 100
2006-01-19 07:56:12 51°14.105 2°53.205 -999 338 7.2 101870 100
2006-01-19 07:56:16 51°14.097 2°53.184 -999 345 7.2 101880 100
2006-01-19 07:56:22 51°14.085 2°53.155 -999 339 7.2 101880 100
2006-01-19 07:56:27 51°14.075 2°53.129 -999 342 7.2 101880 100
2006-01-19 07:56:32 51°14.065 2°53.104 -999 338 7.2 101880 100
2006-01-19 07:56:37 51°14.056 2°53.078 -999 340 7.2 101870 100
2006-01-19 07:56:42 51°14.046 2°53.053 -999 338 7.2 101870 100
2006-01-19 07:56:47 51°14.038 2°53.026 -999 337 7.2 101880 100
2006-01-19 07:56:52 51°14.028 2°53 -999 338 7.2 101880 100
2006-01-19 07:56:57 51°14.02 2°52.974 -999 337 7.2 101870 100
2006-01-19 07:57:02 51°14.01 2°52.948 -999 340 7.2 101870 100
2006-01-19 07:57:07 51°14.001 2°52.923 -999 338 7.2 101910 100
2006-01-19 07:57:13 51°13.989 2°52.892 -999 341 7.2 101910 100
2006-01-19 07:57:17 51°13.981 2°52.872 -999 339 7.2 101880 100
2006-01-19 07:57:22 51°13.971 2°52.848 -999 340 7.2 101880 100
2006-01-19 07:57:27 51°13.961 2°52.823 -999 343 7.2 101880 100
2006-01-19 07:57:32 51°13.95 2°52.8 -999 339 7.2 101880 100
2006-01-19 07:57:37 51°13.939 2°52.776 -999 341 7.2 101890 100
2006-01-19 07:57:42 51°13.929 2°52.752 -999 342 7.2 101890 100
2006-01-19 07:57:47 51°13.918 2°52.728 -999 337 7.2 101880 100
2006-01-19 07:57:53 51°13.906 2°52.698 -999 338 7.2 101880 100
2006-01-19 07:57:57 51°13.898 2°52.678 -999 338 7.2 101880 100
2006-01-19 07:58:02 51°13.889 2°52.653 -999 338 7.2 101880 100
2006-01-19 07:58:07 51°13.879 2°52.628 -999 337 7.2 101880 100
2006-01-19 07:58:12 51°13.87 2°52.603 -999 344 7.2 101880 100
2006-01-19 07:58:17 51°13.861 2°52.577 -999 338 7.1 101870 100
2006-01-19 07:58:22 51°13.852 2°52.551 -999 340 7.1 101870 100
2006-01-19 07:58:27 51°13.843 2°52.526 -999 340 7.1 101880 100
2006-01-19 07:58:32 51°13.833 2°52.501 -999 337 7.1 101880 100
2006-01-19 07:58:37 51°13.824 2°52.476 -999 340 7.1 101930 100
2006-01-19 07:58:42 51°13.814 2°52.451 -999 339 7.1 101930 100
2006-01-19 07:58:47 51°13.805 2°52.426 -999 339 7.1 101930 100
2006-01-19 07:58:52 51°13.795 2°52.402 -999 340 7.1 101930 100
2006-01-19 07:58:57 51°13.785 2°52.377 -999 342 7.1 101930 100
2006-01-19 07:59:02 51°13.775 2°52.352 -999 343 7.1 101930 100
2006-01-19 07:59:07 51°13.765 2°52.328 -999 341 7.1 101930 100
2006-01-19 07:59:12 51°13.755 2°52.303 -999 338 7.1 101930 100
2006-01-19 07:59:17 51°13.746 2°52.278 -999 335 7.1 101940 100
2006-01-19 07:59:22 51°13.736 2°52.253 -999 339 7.1 101940 100
2006-01-19 07:59:27 51°13.727 2°52.227 -999 339 7.1 101930 100
2006-01-19 07:59:32 51°13.718 2°52.202 -999 342 7.1 101930 100
2006-01-19 07:59:37 51°13.708 2°52.177 -999 339 7.1 101930 100
2006-01-19 07:59:42 51°13.699 2°52.152 -999 340 7.1 101930 100
2006-01-19 07:59:47 51°13.69 2°52.126 -999 339 7.1 101930 100
2006-01-19 07:59:52 51°13.68 2°52.101 -999 339 7.1 101930 100
2006-01-19 07:59:57 51°13.671 2°52.075 -999 336 7.1 101930 100
2006-01-19 08:00:02 51°13.661 2°52.05 -999 336 7.1 101930 100
2006-01-19 08:00:07 51°13.651 2°52.025 -999 338 7.1 101930 100
2006-01-19 08:00:13 51°13.639 2°51.996 -999 338 7.1 101930 100
2006-01-19 08:00:17 51°13.631 2°51.976 -999 336 7.1 101930 100
2006-01-19 08:00:22 51°13.621 2°51.951 -999 343 7.1 101930 100
2006-01-19 08:00:27 51°13.611 2°51.926 -999 339 7.1 101930 100
2006-01-19 08:00:33 51°13.599 2°51.896 -999 341 7.1 101930 100
2006-01-19 08:00:37 51°13.591 2°51.876 -999 337 7.1 101930 100
2006-01-19 08:00:42 51°13.58 2°51.851 -999 339 7.1 101930 100
2006-01-19 08:00:47 51°13.571 2°51.826 -999 338 7.1 101930 100
2006-01-19 08:00:52 51°13.561 2°51.801 -999 339 7.1 101930 100
2006-01-19 08:00:57 51°13.551 2°51.775 -999 336 7 101930 100
2006-01-19 08:01:02 51°13.541 2°51.75 -999 338 7 101930 100
2006-01-19 08:01:07 51°13.532 2°51.724 -999 337 7 101930 100
2006-01-19 08:01:12 51°13.523 2°51.698 -999 337 7 101930 100
2006-01-19 08:01:17 51°13.513 2°51.672 -999 338 7 101940 100
2006-01-19 08:01:22 51°13.504 2°51.647 -999 339 7 101940 100
2006-01-19 08:01:27 51°13.494 2°51.622 -999 341 7 101930 100
2006-01-19 08:01:32 51°13.484 2°51.596 -999 337 7 101930 100
2006-01-19 08:01:37 51°13.474 2°51.571 -999 333 7 101930 100
2006-01-19 08:01:42 51°13.464 2°51.546 -999 341 7 101930 100
2006-01-19 08:01:47 51°13.454 2°51.521 -999 338 7 101930 100
2006-01-19 08:01:52 51°13.444 2°51.496 -999 338 7 101930 100
2006-01-19 08:01:57 51°13.434 2°51.47 -999 338 7.1 101930 100
2006-01-19 08:02:02 51°13.424 2°51.445 -999 338 7.1 101930 100
2006-01-19 08:02:07 51°13.415 2°51.42 -999 334 7 101940 100
2006-01-19 08:02:12 51°13.405 2°51.394 -999 335 7 101940 100
2006-01-19 08:02:17 51°13.395 2°51.369 -999 338 7 101930 100
2006-01-19 08:02:22 51°13.385 2°51.344 -999 337 7 101930 100
2006-01-19 08:02:26 51°13.377 2°51.323 -999 339 7 101940 100
2006-01-19 08:02:32 51°13.366 2°51.293 -999 338 7 101940 100
2006-01-19 08:02:37 51°13.356 2°51.267 -999 339 7 101940 100
2006-01-19 08:02:42 51°13.346 2°51.242 -999 337 7 101940 100
2006-01-19 08:02:46 51°13.338 2°51.222 -999 338 7 101940 100
2006-01-19 08:02:52 51°13.326 2°51.192 -999 340 7 101940 100
2006-01-19 08:02:57 51°13.316 2°51.167 -999 344 7 101930 100
2006-01-19 08:03:02 51°13.306 2°51.141 -999 341 7 101930 100
2006-01-19 08:03:07 51°13.296 2°51.116 -999 339 7 101930 100
2006-01-19 08:03:12 51°13.286 2°51.09 -999 336 7 101930 100
2006-01-19 08:03:17 51°13.276 2°51.065 -999 336 7 101930 100
2006-01-19 08:03:22 51°13.267 2°51.039 -999 343 7 101930 100
2006-01-19 08:03:27 51°13.257 2°51.013 -999 340 7 101930 100
2006-01-19 08:03:32 51°13.247 2°50.988 -999 339 7 101930 100
2006-01-19 08:03:37 51°13.238 2°50.962 -999 340 7 101930 100
2006-01-19 08:03:42 51°13.228 2°50.937 -999 339 7 101930 100
2006-01-19 08:03:47 51°13.218 2°50.911 -999 343 7 101940 100
2006-01-19 08:03:52 51°13.208 2°50.886 -999 341 7 101940 100
2006-01-19 08:03:57 51°13.198 2°50.86 -999 340 7 101940 100
2006-01-19 08:04:02 51°13.188 2°50.835 -999 339 7 101940 100
2006-01-19 08:04:07 51°13.178 2°50.81 -999 340 6.9 101940 100
2006-01-19 08:04:12 51°13.168 2°50.784 -999 337 6.9 101940 100
2006-01-19 08:04:17 51°13.158 2°50.759 -999 339 6.9 101940 100
2006-01-19 08:04:22 51°13.148 2°50.733 -999 340 6.9 101940 100
2006-01-19 08:04:27 51°13.138 2°50.708 -999 336 6.9 101940 100
2006-01-19 08:04:32 51°13.129 2°50.682 -999 338 6.9 101940 100
2006-01-19 08:04:37 51°13.119 2°50.656 -999 340 6.9 101940 100
2006-01-19 08:04:42 51°13.11 2°50.63 -999 338 6.9 101940 100
2006-01-19 08:04:47 51°13.1 2°50.604 -999 342 6.9 101940 100
2006-01-19 08:04:52 51°13.091 2°50.578 -999 343 6.9 101940 100
2006-01-19 08:04:57 51°13.081 2°50.553 -999 340 6.9 101950 100
2006-01-19 08:05:02 51°13.071 2°50.527 -999 341 6.9 101950 100
2006-01-19 08:05:06 51°13.063 2°50.507 -999 342 6.9 101940 100
2006-01-19 08:05:12 51°13.051 2°50.476 -999 342 6.9 101940 100
2006-01-19 08:05:17 51°13.041 2°50.451 -999 341 6.9 101940 100
2006-01-19 08:05:22 51°13.031 2°50.425 -999 341 6.9 101940 100
2006-01-19 08:05:27 51°13.022 2°50.4 -999 340 6.9 101940 100
2006-01-19 08:05:32 51°13.012 2°50.374 -999 341 6.9 101940 100
2006-01-19 08:05:37 51°13.002 2°50.348 -999 340 6.9 101940 100
2006-01-19 08:05:42 51°12.993 2°50.322 -999 340 6.9 101940 100
2006-01-19 08:05:47 51°12.984 2°50.296 -999 343 6.9 101950 100
2006-01-19 08:05:52 51°12.974 2°50.271 -999 341 6.9 101950 100
2006-01-19 08:05:57 51°12.965 2°50.244 -999 336 6.9 101950 100
2006-01-19 08:06:02 51°12.955 2°50.218 -999 342 6.9 101950 100
2006-01-19 08:06:07 51°12.946 2°50.192 -999 340 6.9 101950 100
2006-01-19 08:06:12 51°12.936 2°50.166 -999 340 6.9 101950 100
2006-01-19 08:06:17 51°12.927 2°50.14 -999 338 6.9 101950 100
2006-01-19 08:06:22 51°12.918 2°50.113 -999 340 6.9 101950 100
2006-01-19 08:06:26 51°12.911 2°50.092 -999 342 6.9 101950 100
2006-01-19 08:06:32 51°12.9 2°50.061 -999 340 6.9 101950 100
2006-01-19 08:06:37 51°12.891 2°50.034 -999 342 6.9 101940 100
2006-01-19 08:06:42 51°12.882 2°50.008 -999 339 6.9 101940 100
2006-01-19 08:06:47 51°12.873 2°49.982 -999 342 6.9 101950 100
2006-01-19 08:06:52 51°12.863 2°49.956 -999 342 6.9 101950 100
2006-01-19 08:06:57 51°12.853 2°49.93 -999 342 6.9 101950 100
2006-01-19 08:07:02 51°12.844 2°49.904 -999 342 6.9 101950 100
2006-01-19 08:07:07 51°12.834 2°49.878 -999 343 6.9 101950 100
2006-01-19 08:07:13 51°12.823 2°49.847 -999 338 6.9 101950 100
2006-01-19 08:07:17 51°12.816 2°49.826 -999 343 6.9 101950 100
2006-01-19 08:07:22 51°12.807 2°49.8 -999 344 6.9 101950 100
2006-01-19 08:07:27 51°12.798 2°49.773 -999 343 6.9 101950 100
2006-01-19 08:07:32 51°12.789 2°49.747 -999 341 6.9 101950 100
2006-01-19 08:07:37 51°12.78 2°49.721 -999 338 6.9 101950 100
2006-01-19 08:07:43 51°12.769 2°49.689 -999 344 6.9 101950 100
2006-01-19 08:07:47 51°12.762 2°49.669 -999 340 6.9 101950 100
2006-01-19 08:07:52 51°12.752 2°49.643 -999 342 6.9 101950 100
2006-01-19 08:07:57 51°12.743 2°49.617 -999 339 6.8 101940 100
2006-01-19 08:08:02 51°12.733 2°49.591 -999 342 6.8 101940 100
2006-01-19 08:08:07 51°12.724 2°49.565 -999 342 6.9 101950 100
2006-01-19 08:08:12 51°12.715 2°49.539 -999 341 6.9 101950 100
2006-01-19 08:08:17 51°12.706 2°49.513 -999 342 6.9 101950 100
2006-01-19 08:08:22 51°12.697 2°49.487 -999 345 6.9 101950 100
2006-01-19 08:08:26 51°12.689 2°49.466 -999 340 6.9 101950 100
2006-01-19 08:08:32 51°12.679 2°49.434 -999 342 6.9 101950 100
2006-01-19 08:08:37 51°12.669 2°49.408 -999 343 6.9 101940 100
2006-01-19 08:08:42 51°12.661 2°49.381 -999 339 6.9 101940 100
2006-01-19 08:08:47 51°12.652 2°49.355 -999 343 6.9 101950 100
2006-01-19 08:08:52 51°12.643 2°49.328 -999 341 6.9 101950 100
2006-01-19 08:08:57 51°12.633 2°49.302 -999 342 6.9 101950 100
2006-01-19 08:09:02 51°12.624 2°49.276 -999 344 6.9 101950 100
2006-01-19 08:09:06 51°12.617 2°49.255 -999 344 6.9 101950 100
2006-01-19 08:09:12 51°12.606 2°49.224 -999 342 6.9 101950 100
2006-01-19 08:09:17 51°12.596 2°49.198 -999 340 6.9 101950 100
2006-01-19 08:09:22 51°12.587 2°49.172 -999 344 6.9 101950 100
2006-01-19 08:09:27 51°12.577 2°49.146 -999 341 6.9 101950 100
2006-01-19 08:09:32 51°12.568 2°49.12 -999 342 6.9 101950 100
2006-01-19 08:09:37 51°12.558 2°49.094 -999 344 6.9 101950 100
2006-01-19 08:09:42 51°12.549 2°49.068 -999 341 6.9 101950 100
2006-01-19 08:09:47 51°12.54 2°49.042 -999 340 6.9 101960 100
2006-01-19 08:09:52 51°12.531 2°49.016 -999 341 6.9 101960 100
2006-01-19 08:09:57 51°12.522 2°48.99 -999 341 6.9 101950 100
2006-01-19 08:10:02 51°12.513 2°48.963 -999 342 6.9 101950 100
2006-01-19 08:10:07 51°12.504 2°48.937 -999 339 6.9 101950 100
2006-01-19 08:10:12 51°12.495 2°48.911 -999 340 6.9 101950 100
2006-01-19 08:10:17 51°12.486 2°48.885 -999 343 6.9 101950 100
2006-01-19 08:10:22 51°12.477 2°48.858 -999 343 6.9 101950 100
2006-01-19 08:10:27 51°12.468 2°48.832 -999 341 6.9 101950 100
2006-01-19 08:10:32 51°12.459 2°48.806 -999 344 6.9 101950 100
2006-01-19 08:10:37 51°12.45 2°48.78 -999 345 6.9 101950 100
2006-01-19 08:10:42 51°12.441 2°48.753 -999 339 6.9 101950 100
2006-01-19 08:10:47 51°12.432 2°48.727 -999 337 6.9 101950 100
2006-01-19 08:10:53 51°12.421 2°48.695 -999 342 6.9 101950 100
2006-01-19 08:10:57 51°12.414 2°48.674 -999 340 6.9 101940 100
2006-01-19 08:11:02 51°12.405 2°48.648 -999 339 6.9 101940 100
2006-01-19 08:11:07 51°12.396 2°48.621 -999 340 6.9 101950 100
2006-01-19 08:11:12 51°12.387 2°48.595 -999 341 6.9 101950 100
2006-01-19 08:11:17 51°12.378 2°48.569 -999 341 6.9 101950 100
2006-01-19 08:11:22 51°12.369 2°48.543 -999 343 6.9 101950 100
2006-01-19 08:11:27 51°12.36 2°48.516 -999 341 7 101950 100
2006-01-19 08:11:32 51°12.35 2°48.49 -999 341 7 101950 100
2006-01-19 08:11:37 51°12.341 2°48.464 -999 343 7 101950 100
2006-01-19 08:11:42 51°12.332 2°48.438 -999 341 7 101950 100
2006-01-19 08:11:47 51°12.323 2°48.412 -999 339 6.9 101950 100
2006-01-19 08:11:52 51°12.314 2°48.385 -999 339 6.9 101950 100
2006-01-19 08:11:57 51°12.304 2°48.359 -999 341 6.9 101950 100
2006-01-19 08:12:02 51°12.295 2°48.333 -999 342 6.9 101950 100
2006-01-19 08:12:07 51°12.286 2°48.306 -999 340 6.9 101950 100
2006-01-19 08:12:12 51°12.277 2°48.28 -999 338 6.9 101950 100
2006-01-19 08:12:17 51°12.268 2°48.254 -999 343 6.9 101950 100
2006-01-19 08:12:22 51°12.259 2°48.227 -999 340 6.9 101950 100
2006-01-19 08:12:27 51°12.25 2°48.201 -999 341 6.9 101950 100
2006-01-19 08:12:32 51°12.24 2°48.175 -999 341 6.9 101950 100
2006-01-19 08:12:37 51°12.231 2°48.149 -999 343 6.9 101950 100
2006-01-19 08:12:42 51°12.222 2°48.123 -999 340 6.9 101950 100
2006-01-19 08:12:47 51°12.213 2°48.096 -999 340 6.9 101950 100
2006-01-19 08:12:52 51°12.204 2°48.07 -999 338 6.9 101950 100
2006-01-19 08:12:57 51°12.195 2°48.044 -999 339 6.9 101950 100
2006-01-19 08:13:02 51°12.186 2°48.017 -999 339 6.9 101950 100
2006-01-19 08:13:07 51°12.177 2°47.991 -999 336 6.9 101950 100
2006-01-19 08:13:12 51°12.168 2°47.964 -999 340 6.9 101950 100
2006-01-19 08:13:17 51°12.159 2°47.937 -999 338 6.9 101950 100
2006-01-19 08:13:22 51°12.15 2°47.911 -999 342 6.9 101950 100
2006-01-19 08:13:27 51°12.141 2°47.885 -999 338 6.9 101940 100
2006-01-19 08:13:33 51°12.13 2°47.854 -999 337 6.9 101940 100
2006-01-19 08:13:37 51°12.122 2°47.833 -999 340 6.9 101950 100
2006-01-19 08:13:42 51°12.113 2°47.807 -999 338 6.9 101950 100
2006-01-19 08:13:47 51°12.104 2°47.781 -999 338 6.9 101950 100
2006-01-19 08:13:53 51°12.093 2°47.749 -999 337 6.9 101950 100
2006-01-19 08:13:57 51°12.086 2°47.728 -999 338 6.9 101950 100
2006-01-19 08:14:02 51°12.077 2°47.702 -999 339 6.9 101950 100
2006-01-19 08:14:07 51°12.068 2°47.676 -999 339 6.9 101950 100
2006-01-19 08:14:12 51°12.059 2°47.649 -999 339 6.9 101950 100
2006-01-19 08:14:17 51°12.05 2°47.623 -999 339 6.9 101950 100
2006-01-19 08:14:22 51°12.04 2°47.597 -999 340 6.9 101950 100
2006-01-19 08:14:26 51°12.033 2°47.576 -999 341 6.9 101950 100
2006-01-19 08:14:32 51°12.022 2°47.545 -999 338 6.9 101950 100
2006-01-19 08:14:37 51°12.013 2°47.519 -999 339 6.9 101950 100
2006-01-19 08:14:42 51°12.004 2°47.493 -999 340 6.9 101950 100
2006-01-19 08:14:47 51°11.995 2°47.466 -999 339 6.9 101950 100
2006-01-19 08:14:52 51°11.986 2°47.44 -999 339 6.9 101950 100
2006-01-19 08:14:57 51°11.977 2°47.414 -999 342 6.9 101950 100
2006-01-19 08:15:02 51°11.969 2°47.387 -999 342 6.9 101950 100
2006-01-19 08:15:07 51°11.96 2°47.361 -999 342 6.9 101940 100
2006-01-19 08:15:13 51°11.949 2°47.329 -999 341 6.9 101940 100
2006-01-19 08:15:17 51°11.942 2°47.308 -999 344 6.9 101900 100
2006-01-19 08:15:22 51°11.933 2°47.282 -999 344 6.9 101900 100
2006-01-19 08:15:27 51°11.924 2°47.255 -999 341 6.9 101890 100
2006-01-19 08:15:32 51°11.915 2°47.229 -999 339 6.9 101890 100
2006-01-19 08:15:37 51°11.906 2°47.203 -999 342 6.9 101900 100
2006-01-19 08:15:42 51°11.897 2°47.177 -999 341 6.9 101900 100
2006-01-19 08:15:46 51°11.889 2°47.156 -999 344 6.9 101900 100
2006-01-19 08:15:52 51°11.878 2°47.125 -999 338 6.9 101900 100
2006-01-19 08:15:57 51°11.869 2°47.099 -999 343 6.9 101900 100
2006-01-19 08:16:02 51°11.86 2°47.073 -999 341 6.9 101900 100
2006-01-19 08:16:06 51°11.852 2°47.052 -999 341 6.9 101900 100
2006-01-19 08:16:12 51°11.842 2°47.021 -999 342 6.9 101900 100
2006-01-19 08:16:17 51°11.832 2°46.995 -999 343 6.9 101900 100
2006-01-19 08:16:22 51°11.824 2°46.968 -999 342 6.9 101900 100
2006-01-19 08:16:27 51°11.815 2°46.942 -999 345 6.9 101900 100
2006-01-19 08:16:32 51°11.806 2°46.916 -999 338 6.9 101900 100
2006-01-19 08:16:37 51°11.797 2°46.889 -999 338 7 101900 100
2006-01-19 08:16:42 51°11.789 2°46.863 -999 342 7 101900 100
2006-01-19 08:16:46 51°11.782 2°46.842 -999 338 7 101900 100
2006-01-19 08:16:51 51°11.773 2°46.815 -999 341 7 101900 100
2006-01-19 08:16:57 51°11.763 2°46.784 -999 340 7 101890 100
2006-01-19 08:17:02 51°11.754 2°46.758 -999 343 7 101890 100
2006-01-19 08:17:07 51°11.745 2°46.731 -999 341 7 101890 100
2006-01-19 08:17:12 51°11.736 2°46.705 -999 341 7 101890 100
2006-01-19 08:17:17 51°11.727 2°46.679 -999 339 7.1 101900 100
2006-01-19 08:17:22 51°11.718 2°46.653 -999 341 7.1 101900 100
2006-01-19 08:17:26 51°11.71 2°46.632 -999 338 7.1 101900 100
2006-01-19 08:17:32 51°11.7 2°46.601 -999 342 7.1 101900 100
2006-01-19 08:17:37 51°11.691 2°46.575 -999 339 7.1 101900 100
2006-01-19 08:17:42 51°11.682 2°46.548 -999 341 7.1 101900 100
2006-01-19 08:17:47 51°11.673 2°46.522 -999 340 7.1 101900 100
2006-01-19 08:17:53 51°11.663 2°46.49 -999 340 7.1 101900 100
2006-01-19 08:17:57 51°11.656 2°46.47 -999 341 7.1 101900 100
2006-01-19 08:18:02 51°11.647 2°46.443 -999 340 7.1 101900 100
2006-01-19 08:18:07 51°11.639 2°46.416 -999 342 7.1 101900 100
2006-01-19 08:18:13 51°11.628 2°46.385 -999 340 7.1 101900 100
2006-01-19 08:18:17 51°11.621 2°46.364 -999 342 7.1 101900 100
2006-01-19 08:18:22 51°11.612 2°46.338 -999 340 7.1 101900 100
2006-01-19 08:18:27 51°11.604 2°46.311 -999 341 7.1 101900 100
2006-01-19 08:18:32 51°11.595 2°46.285 -999 342 7.1 101900 100
2006-01-19 08:18:37 51°11.586 2°46.259 -999 343 7.1 101900 100
2006-01-19 08:18:42 51°11.577 2°46.233 -999 339 7.1 101900 100
2006-01-19 08:18:46 51°11.569 2°46.212 -999 340 7.1 101900 100
2006-01-19 08:18:52 51°11.558 2°46.182 -999 339 7.1 101900 100
2006-01-19 08:18:57 51°11.549 2°46.156 -999 341 7.1 101900 100
2006-01-19 08:19:02 51°11.54 2°46.13 -999 339 7.1 101900 100
2006-01-19 08:19:06 51°11.533 2°46.108 -999 340 7.1 101900 100
2006-01-19 08:19:12 51°11.523 2°46.077 -999 339 7.1 101900 100
2006-01-19 08:19:17 51°11.515 2°46.05 -999 340 7.1 101900 100
2006-01-19 08:19:22 51°11.507 2°46.023 -999 337 7.1 101900 100
2006-01-19 08:19:26 51°11.501 2°46.001 -999 339 7.1 101900 100
2006-01-19 08:19:32 51°11.492 2°45.968 -999 339 7.1 101900 100
2006-01-19 08:19:37 51°11.485 2°45.941 -999 338 7.1 101900 100
2006-01-19 08:19:42 51°11.478 2°45.913 -999 338 7.1 101900 100
2006-01-19 08:19:47 51°11.471 2°45.885 -999 339 7.1 101900 100
2006-01-19 08:19:52 51°11.464 2°45.858 -999 336 7.1 101900 100
2006-01-19 08:19:57 51°11.457 2°45.83 -999 337 7.1 101900 100
2006-01-19 08:20:02 51°11.449 2°45.803 -999 336 7.1 101900 100
2006-01-19 08:20:07 51°11.442 2°45.776 -999 337 7.1 101910 100
2006-01-19 08:20:12 51°11.434 2°45.749 -999 335 7.1 101910 100
2006-01-19 08:20:17 51°11.426 2°45.721 -999 336 7.1 101900 100
2006-01-19 08:20:22 51°11.418 2°45.694 -999 337 7.1 101900 100
2006-01-19 08:20:27 51°11.41 2°45.667 -999 338 7.1 101910 100
2006-01-19 08:20:32 51°11.403 2°45.639 -999 341 7.1 101910 100
2006-01-19 08:20:37 51°11.395 2°45.612 -999 338 7.1 101900 100
2006-01-19 08:20:42 51°11.388 2°45.585 -999 339 7.1 101900 100
2006-01-19 08:20:47 51°11.38 2°45.557 -999 336 7.1 101900 100
2006-01-19 08:20:52 51°11.373 2°45.529 -999 340 7.1 101900 100
2006-01-19 08:20:57 51°11.366 2°45.501 -999 338 7.1 101900 100
2006-01-19 08:21:02 51°11.359 2°45.473 -999 336 7.1 101900 100
2006-01-19 08:21:07 51°11.353 2°45.445 -999 339 7.1 101900 100
2006-01-19 08:21:12 51°11.347 2°45.417 -999 339 7.1 101900 100
2006-01-19 08:21:17 51°11.34 2°45.389 -999 338 7.1 101910 100
2006-01-19 08:21:22 51°11.334 2°45.361 -999 339 7.1 101910 100
2006-01-19 08:21:27 51°11.328 2°45.333 -999 338 7.1 101900 100
2006-01-19 08:21:32 51°11.321 2°45.305 -999 338 7.1 101900 100
2006-01-19 08:21:37 51°11.314 2°45.276 -999 337 7.1 101900 100
2006-01-19 08:21:42 51°11.307 2°45.248 -999 339 7.1 101900 100
2006-01-19 08:21:47 51°11.301 2°45.221 -999 340 7.1 101910 100
2006-01-19 08:21:52 51°11.293 2°45.193 -999 339 7.1 101910 100
2006-01-19 08:21:57 51°11.286 2°45.166 -999 340 7.1 101910 100
2006-01-19 08:22:02 51°11.278 2°45.138 -999 341 7.1 101910 100
2006-01-19 08:22:06 51°11.272 2°45.116 -999 341 7.1 101910 100
2006-01-19 08:22:12 51°11.262 2°45.084 -999 340 7.1 101910 100
2006-01-19 08:22:17 51°11.255 2°45.057 -999 341 7.1 101910 100
2006-01-19 08:22:22 51°11.247 2°45.03 -999 340 7.1 101910 100
2006-01-19 08:22:27 51°11.24 2°45.002 -999 338 7 101910 100
2006-01-19 08:22:33 51°11.231 2°44.969 -999 336 7 101910 100
2006-01-19 08:22:37 51°11.225 2°44.946 -999 338 7.1 101910 100
2006-01-19 08:22:42 51°11.218 2°44.919 -999 337 7.1 101910 100
2006-01-19 08:22:47 51°11.211 2°44.891 -999 339 7.1 101900 100
2006-01-19 08:22:52 51°11.204 2°44.863 -999 337 7.1 101900 100
2006-01-19 08:22:57 51°11.197 2°44.835 -999 336 7.1 101900 100
2006-01-19 08:23:02 51°11.19 2°44.808 -999 340 7.1 101900 100
2006-01-19 08:23:07 51°11.183 2°44.78 -999 338 7.1 101900 100
2006-01-19 08:23:12 51°11.175 2°44.752 -999 340 7.1 101900 100
2006-01-19 08:23:17 51°11.168 2°44.725 -999 341 7.1 101900 100
2006-01-19 08:23:22 51°11.16 2°44.697 -999 339 7.1 101900 100
2006-01-19 08:23:27 51°11.153 2°44.67 -999 342 7.1 101900 100
2006-01-19 08:23:32 51°11.145 2°44.643 -999 342 7.1 101900 100
2006-01-19 08:23:37 51°11.137 2°44.615 -999 341 7.1 101910 100
2006-01-19 08:23:42 51°11.13 2°44.588 -999 339 7.1 101910 100
2006-01-19 08:23:47 51°11.123 2°44.56 -999 340 7.1 101950 100
2006-01-19 08:23:52 51°11.115 2°44.533 -999 340 7.1 101950 100
2006-01-19 08:23:57 51°11.109 2°44.505 -999 337 7.1 101930 100
2006-01-19 08:24:02 51°11.102 2°44.477 -999 339 7.1 101930 100
2006-01-19 08:24:07 51°11.095 2°44.449 -999 336 7.1 101910 100
2006-01-19 08:24:13 51°11.087 2°44.415 -999 337 7.1 101910 100
2006-01-19 08:24:17 51°11.082 2°44.393 -999 334 7.1 101910 100
2006-01-19 08:24:22 51°11.076 2°44.364 -999 334 7.1 101910 100
2006-01-19 08:24:27 51°11.07 2°44.336 -999 336 7.1 101910 100
2006-01-19 08:24:32 51°11.064 2°44.308 -999 334 7.1 101910 100
2006-01-19 08:24:37 51°11.057 2°44.279 -999 336 7.1 101910 100
2006-01-19 08:24:42 51°11.051 2°44.251 -999 335 7.1 101910 100
2006-01-19 08:24:46 51°11.046 2°44.228 -999 337 7.1 101910 100
2006-01-19 08:24:52 51°11.039 2°44.194 -999 335 7.1 101910 100
2006-01-19 08:24:57 51°11.033 2°44.166 -999 337 7.1 101910 100
2006-01-19 08:25:02 51°11.026 2°44.138 -999 338 7.1 101910 100
2006-01-19 08:25:06 51°11.021 2°44.115 -999 338 7.1 101910 100
2006-01-19 08:25:12 51°11.013 2°44.082 -999 336 7.1 101910 100
2006-01-19 08:25:17 51°11.007 2°44.054 -999 336 7.1 101910 100
2006-01-19 08:25:22 51°11 2°44.026 -999 337 7.1 101910 100
2006-01-19 08:25:26 51°10.995 2°44.003 -999 336 7.1 101910 100
2006-01-19 08:25:32 51°10.987 2°43.97 -999 336 7.1 101910 100
2006-01-19 08:25:37 51°10.98 2°43.941 -999 338 7.1 101910 100
2006-01-19 08:25:42 51°10.974 2°43.913 -999 336 7.1 101910 100
2006-01-19 08:25:47 51°10.967 2°43.885 -999 336 7.1 101910 100
2006-01-19 08:25:52 51°10.961 2°43.857 -999 337 7.1 101910 100
2006-01-19 08:25:57 51°10.954 2°43.828 -999 336 7.1 101910 100
2006-01-19 08:26:02 51°10.948 2°43.8 -999 336 7.1 101910 100
2006-01-19 08:26:07 51°10.942 2°43.772 -999 336 7.1 101910 100
2006-01-19 08:26:12 51°10.935 2°43.743 -999 335 7.1 101910 100
2006-01-19 08:26:17 51°10.929 2°43.715 -999 337 7.1 101910 100
2006-01-19 08:26:22 51°10.923 2°43.687 -999 338 7.1 101910 100
2006-01-19 08:26:27 51°10.916 2°43.658 -999 336 7.1 101910 100
2006-01-19 08:26:32 51°10.91 2°43.63 -999 338 7.1 101910 100
2006-01-19 08:26:37 51°10.904 2°43.602 -999 340 7.1 101910 100
2006-01-19 08:26:42 51°10.897 2°43.573 -999 336 7.1 101910 100
2006-01-19 08:26:47 51°10.89 2°43.545 -999 338 7.1 101910 100
2006-01-19 08:26:52 51°10.884 2°43.517 -999 339 7.1 101910 100
2006-01-19 08:26:57 51°10.877 2°43.489 -999 340 7.1 101920 100
2006-01-19 08:27:02 51°10.871 2°43.461 -999 338 7.1 101920 100
2006-01-19 08:27:07 51°10.864 2°43.433 -999 340 7.1 101910 100
2006-01-19 08:27:12 51°10.857 2°43.405 -999 340 7.1 101910 100
2006-01-19 08:27:17 51°10.85 2°43.377 -999 339 7.1 101910 100
2006-01-19 08:27:22 51°10.844 2°43.348 -999 337 7.1 101910 100
2006-01-19 08:27:26 51°10.839 2°43.326 -999 342 7.2 101910 100
2006-01-19 08:27:33 51°10.83 2°43.286 -999 337 7.2 101910 100
2006-01-19 08:27:37 51°10.826 2°43.263 -999 339 7.2 101920 100
2006-01-19 08:27:42 51°10.819 2°43.235 -999 338 7.2 101920 100
2006-01-19 08:27:47 51°10.814 2°43.206 -999 342 7.2 101920 100
2006-01-19 08:27:52 51°10.807 2°43.178 -999 339 7.2 101920 100
2006-01-19 08:27:57 51°10.801 2°43.149 -999 341 7.2 101920 100
2006-01-19 08:28:02 51°10.795 2°43.121 -999 335 7.2 101920 100
2006-01-19 08:28:07 51°10.789 2°43.093 -999 336 7.2 101920 100
2006-01-19 08:28:12 51°10.782 2°43.065 -999 338 7.2 101920 100
2006-01-19 08:28:18 51°10.774 2°43.031 -999 339 7.2 101910 100
2006-01-19 08:28:22 51°10.769 2°43.009 -999 338 7.2 101910 100
2006-01-19 08:28:27 51°10.762 2°42.981 -999 337 7.2 101910 100
2006-01-19 08:28:32 51°10.756 2°42.952 -999 338 7.2 101910 100
2006-01-19 08:28:37 51°10.749 2°42.924 -999 337 7.3 101910 100
2006-01-19 08:28:42 51°10.743 2°42.896 -999 338 7.3 101910 100
2006-01-19 08:28:47 51°10.737 2°42.867 -999 338 7.3 101910 100
2006-01-19 08:28:52 51°10.731 2°42.839 -999 340 7.3 101910 100
2006-01-19 08:28:57 51°10.725 2°42.81 -999 339 7.3 101910 100
2006-01-19 08:29:02 51°10.719 2°42.782 -999 339 7.3 101910 100
2006-01-19 08:29:07 51°10.713 2°42.753 -999 340 7.3 101910 100
2006-01-19 08:29:12 51°10.707 2°42.725 -999 340 7.3 101910 100
2006-01-19 08:29:17 51°10.7 2°42.697 -999 339 7.3 101910 100
2006-01-19 08:29:22 51°10.694 2°42.669 -999 339 7.3 101910 100
2006-01-19 08:29:27 51°10.687 2°42.641 -999 340 7.3 101910 100
2006-01-19 08:29:32 51°10.681 2°42.613 -999 339 7.3 101910 100
2006-01-19 08:29:37 51°10.674 2°42.585 -999 340 7.3 101920 100
2006-01-19 08:29:42 51°10.667 2°42.557 -999 341 7.3 101920 100
2006-01-19 08:29:47 51°10.661 2°42.528 -999 336 7.3 101910 100
2006-01-19 08:29:52 51°10.655 2°42.5 -999 336 7.3 101910 100
2006-01-19 08:29:57 51°10.649 2°42.471 -999 336 7.3 101910 100
2006-01-19 08:30:02 51°10.643 2°42.443 -999 339 7.3 101910 100
2006-01-19 08:30:07 51°10.637 2°42.414 -999 336 7.4 101920 100
2006-01-19 08:30:12 51°10.631 2°42.386 -999 336 7.4 101920 100
2006-01-19 08:30:17 51°10.625 2°42.357 -999 337 7.3 101910 100
2006-01-19 08:30:22 51°10.619 2°42.329 -999 338 7.3 101910 100
2006-01-19 08:30:27 51°10.613 2°42.3 -999 338 7.3 101910 100
2006-01-19 08:30:32 51°10.606 2°42.273 -999 336 7.3 101910 100
2006-01-19 08:30:37 51°10.6 2°42.244 -999 339 7.3 101910 100
2006-01-19 08:30:42 51°10.593 2°42.216 -999 338 7.3 101910 100
2006-01-19 08:30:47 51°10.586 2°42.188 -999 340 7.3 101920 100
2006-01-19 08:30:52 51°10.579 2°42.161 -999 341 7.3 101920 100
2006-01-19 08:30:57 51°10.572 2°42.132 -999 340 7.3 101910 100
2006-01-19 08:31:02 51°10.565 2°42.105 -999 339 7.3 101910 100
2006-01-19 08:31:07 51°10.559 2°42.076 -999 341 7.3 101910 100
2006-01-19 08:31:12 51°10.553 2°42.048 -999 340 7.3 101910 100
2006-01-19 08:31:17 51°10.547 2°42.019 -999 338 7.3 101910 100
2006-01-19 08:31:22 51°10.541 2°41.991 -999 336 7.3 101910 100
2006-01-19 08:31:27 51°10.535 2°41.962 -999 338 7.3 101910 100
2006-01-19 08:31:32 51°10.529 2°41.934 -999 337 7.3 101910 100
2006-01-19 08:31:36 51°10.524 2°41.911 -999 340 7.3 101910 100
2006-01-19 08:31:42 51°10.517 2°41.877 -999 340 7.3 101910 100
2006-01-19 08:31:47 51°10.511 2°41.848 -999 339 7.3 101910 100
2006-01-19 08:31:52 51°10.505 2°41.82 -999 339 7.3 101910 100
2006-01-19 08:31:57 51°10.498 2°41.791 -999 341 7.3 101910 100
2006-01-19 08:32:02 51°10.492 2°41.763 -999 336 7.3 101910 100
2006-01-19 08:32:07 51°10.485 2°41.735 -999 341 7.3 101920 100
2006-01-19 08:32:12 51°10.479 2°41.707 -999 340 7.3 101920 100
2006-01-19 08:32:17 51°10.472 2°41.678 -999 342 7.3 101920 100
2006-01-19 08:32:22 51°10.466 2°41.65 -999 339 7.3 101920 100
2006-01-19 08:32:27 51°10.46 2°41.621 -999 339 7.3 101910 100
2006-01-19 08:32:33 51°10.453 2°41.587 -999 341 7.3 101910 100
2006-01-19 08:32:37 51°10.448 2°41.564 -999 338 7.2 101920 100
2006-01-19 08:32:42 51°10.442 2°41.535 -999 339 7.2 101920 100
2006-01-19 08:32:47 51°10.437 2°41.507 -999 338 7.2 101910 100
2006-01-19 08:32:52 51°10.431 2°41.478 -999 338 7.2 101910 100
2006-01-19 08:32:57 51°10.425 2°41.45 -999 338 7.2 101920 100
2006-01-19 08:33:02 51°10.419 2°41.421 -999 338 7.2 101920 100
2006-01-19 08:33:06 51°10.414 2°41.399 -999 339 7.2 101910 100
2006-01-19 08:33:12 51°10.406 2°41.365 -999 341 7.2 101910 100
2006-01-19 08:33:17 51°10.4 2°41.336 -999 338 7.2 101910 100
2006-01-19 08:33:22 51°10.393 2°41.308 -999 340 7.2 101910 100
2006-01-19 08:33:26 51°10.388 2°41.285 -999 342 7.3 101910 100
2006-01-19 08:33:32 51°10.381 2°41.251 -999 340 7.3 101910 100
2006-01-19 08:33:37 51°10.375 2°41.223 -999 340 7.3 101910 100
2006-01-19 08:33:42 51°10.369 2°41.194 -999 340 7.3 101910 100
2006-01-19 08:33:47 51°10.363 2°41.166 -999 340 7.3 101910 100
2006-01-19 08:33:53 51°10.357 2°41.131 -999 340 7.3 101910 100
2006-01-19 08:33:57 51°10.352 2°41.108 -999 341 7.2 101910 100
2006-01-19 08:34:02 51°10.347 2°41.079 -999 339 7.2 101910 100
2006-01-19 08:34:07 51°10.341 2°41.05 -999 340 7.2 101910 100
2006-01-19 08:34:13 51°10.335 2°41.016 -999 340 7.2 101910 100
2006-01-19 08:34:17 51°10.33 2°40.993 -999 340 7.3 101910 100
2006-01-19 08:34:22 51°10.324 2°40.964 -999 340 7.3 101910 100
2006-01-19 08:34:27 51°10.319 2°40.936 -999 340 7.2 101910 100
2006-01-19 08:34:33 51°10.311 2°40.902 -999 337 7.2 101910 100
2006-01-19 08:34:37 51°10.306 2°40.879 -999 339 7.3 101910 100
2006-01-19 08:34:42 51°10.3 2°40.85 -999 339 7.3 101910 100
2006-01-19 08:34:47 51°10.294 2°40.822 -999 339 7.3 101910 100
2006-01-19 08:34:53 51°10.287 2°40.787 -999 341 7.3 101910 100
2006-01-19 08:34:57 51°10.282 2°40.765 -999 338 7.3 101910 100
2006-01-19 08:35:02 51°10.276 2°40.736 -999 340 7.3 101910 100
2006-01-19 08:35:07 51°10.27 2°40.707 -999 341 7.3 101910 100
2006-01-19 08:35:12 51°10.265 2°40.678 -999 339 7.3 101910 100
2006-01-19 08:35:17 51°10.259 2°40.649 -999 339 7.3 101910 100
2006-01-19 08:35:22 51°10.253 2°40.62 -999 340 7.3 101910 100
2006-01-19 08:35:27 51°10.247 2°40.592 -999 342 7.3 101910 100
2006-01-19 08:35:32 51°10.242 2°40.563 -999 342 7.3 101910 100
2006-01-19 08:35:37 51°10.236 2°40.534 -999 342 7.3 101910 100
2006-01-19 08:35:42 51°10.23 2°40.505 -999 342 7.3 101910 100
2006-01-19 08:35:46 51°10.225 2°40.482 -999 338 7.3 101910 100
2006-01-19 08:35:52 51°10.218 2°40.448 -999 340 7.3 101910 100
2006-01-19 08:35:57 51°10.211 2°40.42 -999 340 7.3 101910 100
2006-01-19 08:36:02 51°10.205 2°40.392 -999 340 7.3 101910 100
2006-01-19 08:36:07 51°10.198 2°40.364 -999 341 7.3 101910 100
2006-01-19 08:36:13 51°10.19 2°40.33 -999 340 7.3 101910 100
2006-01-19 08:36:17 51°10.185 2°40.307 -999 339 7.3 101900 100
2006-01-19 08:36:22 51°10.179 2°40.279 -999 340 7.3 101900 100
2006-01-19 08:36:27 51°10.173 2°40.25 -999 340 7.2 101910 100
2006-01-19 08:36:33 51°10.165 2°40.216 -999 341 7.2 101910 100
2006-01-19 08:36:37 51°10.161 2°40.193 -999 339 7.3 101910 100
2006-01-19 08:36:42 51°10.155 2°40.164 -999 340 7.3 101910 100
2006-01-19 08:36:47 51°10.149 2°40.135 -999 340 7.2 101910 100
2006-01-19 08:36:53 51°10.143 2°40.101 -999 339 7.2 101910 100
2006-01-19 08:36:57 51°10.138 2°40.078 -999 339 7.3 101900 100
2006-01-19 08:37:02 51°10.132 2°40.049 -999 339 7.3 101900 100
2006-01-19 08:37:07 51°10.126 2°40.02 -999 341 7.3 101910 100
2006-01-19 08:37:12 51°10.12 2°39.992 -999 340 7.3 101910 100
2006-01-19 08:37:17 51°10.113 2°39.963 -999 341 7.2 101910 100
2006-01-19 08:37:22 51°10.107 2°39.935 -999 341 7.2 101910 100
2006-01-19 08:37:27 51°10.101 2°39.906 -999 342 7.2 101910 100
2006-01-19 08:37:32 51°10.095 2°39.878 -999 342 7.2 101910 100
2006-01-19 08:37:37 51°10.088 2°39.849 -999 341 7.2 101910 100
2006-01-19 08:37:42 51°10.082 2°39.821 -999 341 7.2 101910 100
2006-01-19 08:37:47 51°10.076 2°39.792 -999 342 7.2 101910 100
2006-01-19 08:37:52 51°10.07 2°39.763 -999 341 7.2 101910 100
2006-01-19 08:37:57 51°10.064 2°39.734 -999 340 7.2 101900 100
2006-01-19 08:38:02 51°10.058 2°39.705 -999 339 7.2 101900 100
2006-01-19 08:38:06 51°10.054 2°39.682 -999 338 7.2 101900 100
2006-01-19 08:38:12 51°10.047 2°39.648 -999 341 7.2 101900 100
2006-01-19 08:38:17 51°10.041 2°39.619 -999 342 7.2 101910 100
2006-01-19 08:38:22 51°10.035 2°39.59 -999 341 7.2 101910 100
2006-01-19 08:38:27 51°10.029 2°39.561 -999 341 7.2 101910 100
2006-01-19 08:38:33 51°10.021 2°39.527 -999 341 7.2 101910 100
2006-01-19 08:38:37 51°10.016 2°39.504 -999 341 7.2 101910 100
2006-01-19 08:38:42 51°10.01 2°39.475 -999 341 7.2 101910 100
2006-01-19 08:38:47 51°10.004 2°39.446 -999 342 7.2 101910 100
2006-01-19 08:38:53 51°9.996 2°39.411 -999 341 7.2 101910 100
2006-01-19 08:38:57 51°9.992 2°39.388 -999 342 7.3 101940 100
2006-01-19 08:39:02 51°9.986 2°39.359 -999 337 7.3 101940 100
2006-01-19 08:39:07 51°9.98 2°39.33 -999 342 7.3 101950 100
2006-01-19 08:39:12 51°9.974 2°39.302 -999 343 7.3 101950 100
2006-01-19 08:39:17 51°9.969 2°39.273 -999 339 7.2 101950 100
2006-01-19 08:39:22 51°9.963 2°39.243 -999 341 7.2 101950 100
2006-01-19 08:39:26 51°9.959 2°39.22 -999 342 7.3 101960 100
2006-01-19 08:39:32 51°9.952 2°39.186 -999 340 7.3 101960 100
2006-01-19 08:39:37 51°9.946 2°39.156 -999 341 7.2 101960 100
2006-01-19 08:39:42 51°9.94 2°39.128 -999 342 7.2 101960 100
2006-01-19 08:39:46 51°9.935 2°39.104 -999 341 7.3 101950 100
2006-01-19 08:39:52 51°9.928 2°39.069 -999 342 7.3 101950 100
2006-01-19 08:39:57 51°9.922 2°39.041 -999 341 7.3 101950 100
2006-01-19 08:40:02 51°9.916 2°39.012 -999 340 7.3 101950 100
2006-01-19 08:40:06 51°9.911 2°38.989 -999 342 7.3 101950 100
2006-01-19 08:40:12 51°9.904 2°38.954 -999 342 7.3 101950 100
2006-01-19 08:40:17 51°9.898 2°38.925 -999 341 7.3 101950 100
2006-01-19 08:40:22 51°9.892 2°38.896 -999 340 7.3 101950 100
2006-01-19 08:40:27 51°9.886 2°38.867 -999 340 7.3 101950 100
2006-01-19 08:40:32 51°9.881 2°38.838 -999 339 7.3 101950 100
2006-01-19 08:40:37 51°9.876 2°38.808 -999 340 7.3 101950 100
2006-01-19 08:40:42 51°9.87 2°38.779 -999 341 7.3 101950 100
2006-01-19 08:40:46 51°9.866 2°38.756 -999 342 7.3 101950 100
2006-01-19 08:40:51 51°9.86 2°38.726 -999 340 7.3 101950 100
2006-01-19 08:40:57 51°9.853 2°38.691 -999 341 7.3 101940 100
2006-01-19 08:41:02 51°9.847 2°38.663 -999 340 7.3 101940 100
2006-01-19 08:41:07 51°9.841 2°38.634 -999 343 7.3 101950 100
2006-01-19 08:41:12 51°9.834 2°38.605 -999 342 7.3 101950 100
2006-01-19 08:41:17 51°9.828 2°38.576 -999 342 7.3 101950 100
2006-01-19 08:41:22 51°9.822 2°38.547 -999 343 7.3 101950 100
2006-01-19 08:41:27 51°9.816 2°38.518 -999 343 7.3 101950 100
2006-01-19 08:41:33 51°9.809 2°38.483 -999 340 7.3 101950 100
2006-01-19 08:41:37 51°9.804 2°38.46 -999 342 7.3 101950 100
2006-01-19 08:41:42 51°9.799 2°38.43 -999 341 7.3 101950 100
2006-01-19 08:41:47 51°9.793 2°38.401 -999 342 7.3 101950 100
2006-01-19 08:41:52 51°9.787 2°38.371 -999 341 7.3 101950 100
2006-01-19 08:41:57 51°9.782 2°38.342 -999 341 7.3 101950 100
2006-01-19 08:42:02 51°9.776 2°38.312 -999 343 7.3 101950 100
2006-01-19 08:42:06 51°9.772 2°38.289 -999 342 7.3 101950 100
2006-01-19 08:42:13 51°9.764 2°38.247 -999 341 7.3 101950 100
2006-01-19 08:42:17 51°9.759 2°38.224 -999 342 7.3 101950 100
2006-01-19 08:42:22 51°9.753 2°38.196 -999 343 7.3 101950 100
2006-01-19 08:42:27 51°9.746 2°38.167 -999 343 7.4 101950 100
2006-01-19 08:42:32 51°9.74 2°38.138 -999 342 7.4 101950 100
2006-01-19 08:42:37 51°9.734 2°38.109 -999 341 7.3 101950 100
2006-01-19 08:42:42 51°9.728 2°38.08 -999 344 7.3 101950 100
2006-01-19 08:42:48 51°9.721 2°38.045 -999 341 7.4 101950 100
2006-01-19 08:42:52 51°9.716 2°38.022 -999 340 7.4 101950 100
2006-01-19 08:42:57 51°9.71 2°37.993 -999 340 7.3 101950 100
2006-01-19 08:43:02 51°9.705 2°37.964 -999 340 7.3 101950 100
2006-01-19 08:43:07 51°9.699 2°37.935 -999 343 7.4 101950 100
2006-01-19 08:43:12 51°9.693 2°37.905 -999 342 7.4 101950 100
2006-01-19 08:43:17 51°9.687 2°37.876 -999 341 7.4 101950 100
2006-01-19 08:43:22 51°9.681 2°37.847 -999 342 7.4 101950 100
2006-01-19 08:43:26 51°9.676 2°37.823 -999 343 7.4 101950 100
2006-01-19 08:43:33 51°9.667 2°37.783 -999 344 7.4 101950 100
2006-01-19 08:43:37 51°9.663 2°37.759 -999 340 7.4 101950 100
2006-01-19 08:43:42 51°9.656 2°37.731 -999 343 7.4 101950 100
2006-01-19 08:43:47 51°9.65 2°37.702 -999 342 7.4 101940 100
2006-01-19 08:43:53 51°9.643 2°37.666 -999 341 7.4 101940 100
2006-01-19 08:43:57 51°9.638 2°37.643 -999 340 7.4 101940 100
2006-01-19 08:44:02 51°9.632 2°37.613 -999 339 7.4 101940 100
2006-01-19 08:44:07 51°9.626 2°37.584 -999 340 7.4 101940 100
2006-01-19 08:44:12 51°9.621 2°37.555 -999 342 7.4 101940 100
2006-01-19 08:44:17 51°9.615 2°37.526 -999 341 7.4 101940 100
2006-01-19 08:44:22 51°9.609 2°37.497 -999 341 7.4 101940 100
2006-01-19 08:44:27 51°9.603 2°37.468 -999 342 7.4 101940 100
2006-01-19 08:44:32 51°9.597 2°37.439 -999 342 7.4 101940 100
2006-01-19 08:44:37 51°9.591 2°37.409 -999 341 7.4 101940 100
2006-01-19 08:44:42 51°9.584 2°37.38 -999 342 7.4 101940 100
2006-01-19 08:44:47 51°9.578 2°37.351 -999 341 7.4 101940 100
2006-01-19 08:44:52 51°9.572 2°37.321 -999 338 7.4 101940 100
2006-01-19 08:44:57 51°9.566 2°37.292 -999 342 7.4 101940 100
2006-01-19 08:45:02 51°9.56 2°37.263 -999 341 7.4 101940 100
2006-01-19 08:45:07 51°9.554 2°37.234 -999 341 7.4 101940 100
2006-01-19 08:45:12 51°9.547 2°37.206 -999 343 7.4 101940 100
2006-01-19 08:45:17 51°9.541 2°37.176 -999 341 7.4 101940 100
2006-01-19 08:45:22 51°9.534 2°37.147 -999 341 7.4 101940 100
2006-01-19 08:45:27 51°9.528 2°37.119 -999 343 7.4 101940 100
2006-01-19 08:45:33 51°9.521 2°37.083 -999 342 7.4 101940 100
2006-01-19 08:45:37 51°9.516 2°37.06 -999 340 7.4 101940 100
2006-01-19 08:45:42 51°9.51 2°37.031 -999 342 7.4 101940 100
2006-01-19 08:45:47 51°9.504 2°37.001 -999 340 7.4 101940 100
2006-01-19 08:45:52 51°9.498 2°36.972 -999 341 7.4 101940 100
2006-01-19 08:45:57 51°9.492 2°36.943 -999 341 7.4 101940 100
2006-01-19 08:46:02 51°9.486 2°36.913 -999 340 7.4 101940 100
2006-01-19 08:46:07 51°9.48 2°36.884 -999 343 7.4 101940 100
2006-01-19 08:46:13 51°9.473 2°36.849 -999 340 7.4 101940 100
2006-01-19 08:46:17 51°9.468 2°36.825 -999 342 7.4 101940 100
2006-01-19 08:46:22 51°9.462 2°36.796 -999 343 7.4 101940 100
2006-01-19 08:46:27 51°9.456 2°36.767 -999 339 7.4 101940 100
2006-01-19 08:46:32 51°9.449 2°36.738 -999 341 7.4 101940 100
2006-01-19 08:46:37 51°9.443 2°36.708 -999 341 7.4 101940 100
2006-01-19 08:46:42 51°9.437 2°36.679 -999 341 7.4 101940 100
2006-01-19 08:46:47 51°9.431 2°36.65 -999 342 7.4 101940 100
2006-01-19 08:46:52 51°9.424 2°36.621 -999 342 7.4 101940 100
2006-01-19 08:46:57 51°9.418 2°36.592 -999 341 7.4 101940 100
2006-01-19 08:47:02 51°9.411 2°36.563 -999 342 7.4 101940 100
2006-01-19 08:47:08 51°9.404 2°36.528 -999 343 7.5 101940 100
2006-01-19 08:47:12 51°9.399 2°36.504 -999 341 7.5 101940 100
2006-01-19 08:47:17 51°9.393 2°36.475 -999 343 7.5 101940 100
2006-01-19 08:47:22 51°9.386 2°36.446 -999 341 7.5 101940 100
2006-01-19 08:47:27 51°9.38 2°36.416 -999 341 7.5 101940 100
2006-01-19 08:47:33 51°9.372 2°36.381 -999 341 7.5 101940 100
2006-01-19 08:47:37 51°9.367 2°36.358 -999 343 7.5 101940 100
2006-01-19 08:47:42 51°9.361 2°36.328 -999 344 7.5 101940 100
2006-01-19 08:47:47 51°9.355 2°36.299 -999 341 7.5 101940 100
2006-01-19 08:47:53 51°9.347 2°36.264 -999 341 7.5 101940 100
2006-01-19 08:47:57 51°9.342 2°36.24 -999 340 7.5 101950 100
2006-01-19 08:48:02 51°9.336 2°36.211 -999 341 7.5 101950 100
2006-01-19 08:48:07 51°9.33 2°36.181 -999 342 7.5 101950 100
2006-01-19 08:48:12 51°9.324 2°36.152 -999 342 7.5 101950 100
2006-01-19 08:48:17 51°9.317 2°36.123 -999 342 7.5 101940 100
2006-01-19 08:48:22 51°9.311 2°36.093 -999 342 7.5 101940 100
2006-01-19 08:48:26 51°9.306 2°36.069 -999 341 7.5 101940 100
2006-01-19 08:48:32 51°9.299 2°36.034 -999 340 7.5 101940 100
2006-01-19 08:48:37 51°9.293 2°36.004 -999 341 7.5 101940 100
2006-01-19 08:48:42 51°9.287 2°35.975 -999 342 7.5 101940 100
2006-01-19 08:48:46 51°9.282 2°35.951 -999 337 7.5 101950 100
2006-01-19 08:48:52 51°9.276 2°35.915 -999 339 7.5 101950 100
2006-01-19 08:48:57 51°9.27 2°35.885 -999 340 7.4 101940 100
2006-01-19 08:49:02 51°9.264 2°35.856 -999 341 7.4 101940 100
2006-01-19 08:49:06 51°9.26 2°35.832 -999 340 7.5 101950 100
2006-01-19 08:49:12 51°9.253 2°35.796 -999 340 7.5 101950 100
2006-01-19 08:49:17 51°9.247 2°35.766 -999 340 7.5 101950 100
2006-01-19 08:49:22 51°9.241 2°35.737 -999 341 7.5 101950 100
2006-01-19 08:49:27 51°9.235 2°35.707 -999 340 7.5 101940 100
2006-01-19 08:49:32 51°9.229 2°35.678 -999 342 7.5 101940 100
2006-01-19 08:49:37 51°9.223 2°35.648 -999 338 7.5 101950 100
2006-01-19 08:49:42 51°9.217 2°35.618 -999 338 7.5 101950 100
2006-01-19 08:49:46 51°9.213 2°35.595 -999 338 7.5 101940 100
2006-01-19 08:49:51 51°9.207 2°35.565 -999 338 7.5 101940 100
2006-01-19 08:49:57 51°9.2 2°35.53 -999 339 7.5 101940 100
2006-01-19 08:50:02 51°9.194 2°35.5 -999 341 7.5 101940 100
2006-01-19 08:50:07 51°9.189 2°35.471 -999 342 7.5 101940 100
2006-01-19 08:50:12 51°9.183 2°35.442 -999 338 7.5 101940 100
2006-01-19 08:50:17 51°9.177 2°35.412 -999 342 7.4 101940 100
2006-01-19 08:50:22 51°9.171 2°35.383 -999 340 7.4 101940 100
2006-01-19 08:50:26 51°9.167 2°35.359 -999 340 7.4 101940 100
2006-01-19 08:50:32 51°9.16 2°35.324 -999 340 7.4 101940 100
2006-01-19 08:50:37 51°9.154 2°35.294 -999 341 7.4 101940 100
2006-01-19 08:50:42 51°9.149 2°35.265 -999 339 7.4 101940 100
2006-01-19 08:50:47 51°9.143 2°35.235 -999 340 7.4 101940 100
2006-01-19 08:50:52 51°9.137 2°35.206 -999 339 7.4 101940 100
2006-01-19 08:50:57 51°9.131 2°35.176 -999 342 7.4 101940 100
2006-01-19 08:51:02 51°9.125 2°35.147 -999 343 7.4 101940 100
2006-01-19 08:51:07 51°9.12 2°35.118 -999 341 7.4 101950 100
2006-01-19 08:51:13 51°9.112 2°35.082 -999 341 7.4 101950 100
2006-01-19 08:51:17 51°9.107 2°35.059 -999 341 7.4 101950 100
2006-01-19 08:51:22 51°9.101 2°35.03 -999 342 7.4 101950 100
2006-01-19 08:51:27 51°9.095 2°35 -999 341 7.4 101950 100
2006-01-19 08:51:32 51°9.089 2°34.971 -999 341 7.4 101950 100
2006-01-19 08:51:37 51°9.083 2°34.941 -999 338 7.4 101950 100
2006-01-19 08:51:42 51°9.078 2°34.912 -999 340 7.4 101950 100
2006-01-19 08:51:46 51°9.073 2°34.888 -999 339 7.4 101950 100
2006-01-19 08:51:52 51°9.067 2°34.853 -999 341 7.4 101950 100
2006-01-19 08:51:57 51°9.061 2°34.823 -999 341 7.4 101950 100
2006-01-19 08:52:02 51°9.056 2°34.794 -999 340 7.4 101950 100
2006-01-19 08:52:06 51°9.051 2°34.77 -999 341 7.5 101950 100
2006-01-19 08:52:12 51°9.045 2°34.735 -999 342 7.5 101950 100
2006-01-19 08:52:17 51°9.039 2°34.706 -999 341 7.4 101940 100
2006-01-19 08:52:22 51°9.033 2°34.676 -999 340 7.4 101940 100
2006-01-19 08:52:26 51°9.028 2°34.653 -999 341 7.4 101950 100
2006-01-19 08:52:32 51°9.021 2°34.617 -999 341 7.4 101950 100
2006-01-19 08:52:37 51°9.016 2°34.588 -999 338 7.4 101950 100
2006-01-19 08:52:42 51°9.01 2°34.559 -999 340 7.4 101950 100
2006-01-19 08:52:47 51°9.005 2°34.529 -999 340 7.4 101950 100
2006-01-19 08:52:52 51°9 2°34.5 -999 339 7.4 101950 100
2006-01-19 08:52:57 51°8.996 2°34.47 -999 340 7.4 101950 100
2006-01-19 08:53:02 51°8.991 2°34.44 -999 338 7.4 101950 100
2006-01-19 08:53:07 51°8.986 2°34.411 -999 339 7.4 101950 100
2006-01-19 08:53:13 51°8.981 2°34.375 -999 340 7.4 101950 100
2006-01-19 08:53:17 51°8.976 2°34.351 -999 340 7.4 101950 100
2006-01-19 08:53:22 51°8.972 2°34.322 -999 338 7.4 101950 100
2006-01-19 08:53:27 51°8.967 2°34.292 -999 340 7.4 101950 100
2006-01-19 08:53:32 51°8.962 2°34.262 -999 337 7.4 101950 100
2006-01-19 08:53:37 51°8.957 2°34.233 -999 341 7.4 101950 100
2006-01-19 08:53:42 51°8.951 2°34.203 -999 340 7.4 101950 100
2006-01-19 08:53:47 51°8.946 2°34.173 -999 340 7.4 101950 100
2006-01-19 08:53:52 51°8.941 2°34.144 -999 340 7.4 101950 100
2006-01-19 08:53:57 51°8.936 2°34.114 -999 339 7.4 101950 100
2006-01-19 08:54:02 51°8.931 2°34.085 -999 338 7.4 101950 100
2006-01-19 08:54:07 51°8.927 2°34.055 -999 341 7.4 101950 100
2006-01-19 08:54:12 51°8.922 2°34.025 -999 341 7.4 101950 100
2006-01-19 08:54:17 51°8.917 2°33.996 -999 339 7.4 101960 100
2006-01-19 08:54:22 51°8.912 2°33.966 -999 340 7.4 101960 100
2006-01-19 08:54:26 51°8.908 2°33.943 -999 340 7.4 101950 100
2006-01-19 08:54:33 51°8.902 2°33.906 -999 338 7.4 101950 100
2006-01-19 08:54:37 51°8.899 2°33.886 -999 336 7.4 101950 100
2006-01-19 08:54:42 51°8.895 2°33.864 -999 335 7.4 101950 100
2006-01-19 08:54:47 51°8.892 2°33.842 -999 331 7.4 101950 100
2006-01-19 08:54:52 51°8.889 2°33.822 -999 326 7.4 101950 100
2006-01-19 08:54:57 51°8.888 2°33.803 -999 324 7.4 101960 100
2006-01-19 08:55:02 51°8.887 2°33.785 -999 40 7.4 101960 100
2006-01-19 08:55:07 51°8.888 2°33.768 -999 41 7.4 101960 100
2006-01-19 08:55:12 51°8.89 2°33.751 -999 310 7.4 101960 100
2006-01-19 08:55:18 51°8.893 2°33.732 -999 309 7.4 101960 100
2006-01-19 08:55:22 51°8.897 2°33.72 -999 296 7.4 101960 100
2006-01-19 08:55:27 51°8.903 2°33.706 -999 291 7.4 101960 100
2006-01-19 08:55:32 51°8.91 2°33.695 -999 280 7.4 101960 100
2006-01-19 08:55:37 51°8.918 2°33.685 -999 276 7.4 101970 100
2006-01-19 08:55:42 51°8.927 2°33.678 -999 259 7.4 101970 100
2006-01-19 08:55:47 51°8.936 2°33.673 -999 246 7.4 101970 100
2006-01-19 08:55:52 51°8.945 2°33.671 -999 223 7.4 101970 100
2006-01-19 08:55:57 51°8.954 2°33.671 -999 222 7.4 101970 100
2006-01-19 08:56:02 51°8.963 2°33.674 -999 173 7.4 101970 100
2006-01-19 08:56:07 51°8.971 2°33.678 -999 165 7.4 101980 100
2006-01-19 08:56:12 51°8.978 2°33.685 -999 106 7.4 101980 100
2006-01-19 08:56:17 51°8.985 2°33.693 -999 120 7.4 101980 100
2006-01-19 08:56:23 51°8.991 2°33.706 -999 103 7.4 101980 100
2006-01-19 08:56:27 51°8.994 2°33.715 -999 120 7.4 101980 100
2006-01-19 08:56:32 51°8.996 2°33.727 -999 99 7.4 101980 100
2006-01-19 08:56:37 51°8.996 2°33.739 -999 93 7.4 101980 100
2006-01-19 08:56:43 51°8.995 2°33.754 -999 85 7.4 101980 100
2006-01-19 08:56:47 51°8.993 2°33.764 -999 80 7.4 101980 100
2006-01-19 08:56:52 51°8.989 2°33.775 -999 67 7.4 101980 100
2006-01-19 08:56:57 51°8.984 2°33.787 -999 70 7.4 101980 100
2006-01-19 08:57:02 51°8.979 2°33.798 -999 66 7.4 101980 100
2006-01-19 08:57:07 51°8.973 2°33.81 -999 70 7.4 101980 100
2006-01-19 08:57:13 51°8.967 2°33.825 -999 71 7.4 101980 100
2006-01-19 08:57:18 51°8.963 2°33.839 -999 79 7.4 101970 100
2006-01-19 08:57:22 51°8.961 2°33.85 -999 91 7.4 101970 100
2006-01-19 08:57:26 51°8.959 2°33.86 -999 92 7.4 101970 100
2006-01-19 08:57:32 51°8.958 2°33.875 -999 98 7.4 101970 100